Time;durP1;ratioP1;P1;durP2;ratioP2;P2;SDS_P1;SDS_P2;PMS_P1;PMS_P2;Temp;Humidity;BMP_temperature;BMP_pressure;BME280_temperature;BME280_humidity;BME280_pressure;Samples;Min_cycle;Max_cycle;Signal;HPM_P1;HPM_P2
2022/05/06 00:02:15;;;;;;;23.73;21.70;;;12.50;99.90;;;;;;5012340;28;20389;-85
2022/05/06 00:04:43;;;;;;;24.40;22.30;;;12.40;99.90;;;;;;5013257;28;20377;-85
2022/05/06 00:07:11;;;;;;;25.55;23.15;;;12.50;99.90;;;;;;5010379;28;20392;-84
2022/05/06 00:09:37;;;;;;;24.90;22.63;;;12.50;99.90;;;;;;5013425;28;20471;-85
2022/05/06 00:12:04;;;;;;;24.45;22.23;;;12.50;99.90;;;;;;5013002;28;20821;-84
2022/05/06 00:14:30;;;;;;;22.88;20.88;;;12.60;99.90;;;;;;5013039;28;20385;-84
2022/05/06 00:16:55;;;;;;;22.38;20.45;;;12.70;99.90;;;;;;5013271;28;20401;-84
2022/05/06 00:19:21;;;;;;;23.23;21.40;;;12.80;99.90;;;;;;5013103;28;20405;-85
2022/05/06 00:21:47;;;;;;;23.75;21.75;;;12.70;99.90;;;;;;5013380;28;20389;-84
2022/05/06 00:24:13;;;;;;;21.50;19.63;;;12.70;99.90;;;;;;5013067;28;20385;-85
2022/05/06 00:26:38;;;;;;;23.15;21.25;;;12.80;99.90;;;;;;5012932;28;20396;-85
2022/05/06 00:29:04;;;;;;;22.77;20.88;;;12.70;99.90;;;;;;5012907;28;20890;-85
2022/05/06 00:31:29;;;;;;;24.53;22.37;;;12.70;99.90;;;;;;5009741;28;20479;-85
2022/05/06 00:33:55;;;;;;;26.37;24.07;;;12.70;99.90;;;;;;5011934;28;20392;-85
2022/05/06 00:36:21;;;;;;;24.90;22.73;;;12.60;99.90;;;;;;5010962;28;20407;-84
2022/05/06 00:38:46;;;;;;;23.53;21.57;;;12.60;99.90;;;;;;5012005;28;20389;-85
2022/05/06 00:41:12;;;;;;;24.00;22.00;;;12.80;99.90;;;;;;5011497;28;20389;-85
2022/05/06 00:43:42;;;;;;;23.20;21.30;;;12.80;99.90;;;;;;5012398;28;20383;-84
2022/05/06 00:46:12;;;;;;;25.05;22.95;;;12.70;99.90;;;;;;5012033;28;20388;-85
2022/05/06 00:48:41;;;;;;;22.77;20.98;;;12.60;99.90;;;;;;5012708;28;20519;-85
2022/05/06 00:51:08;;;;;;;21.83;20.02;;;12.50;99.90;;;;;;5012814;28;20389;-84
2022/05/06 00:53:35;;;;;;;20.60;19.00;;;12.60;99.90;;;;;;5011341;28;20408;-84
2022/05/06 00:56:02;;;;;;;19.52;18.00;;;12.70;99.90;;;;;;5012624;28;20479;-85
2022/05/06 00:58:30;;;;;;;19.05;17.60;;;12.80;99.90;;;;;;5012827;28;20874;-85
2022/05/06 01:00:55;;;;;;;18.77;17.38;;;12.70;99.90;;;;;;5012596;28;20398;-84
2022/05/06 01:03:21;;;;;;;18.58;17.17;;;12.60;99.90;;;;;;5012574;28;20387;-84
2022/05/06 01:05:49;;;;;;;20.00;18.43;;;12.50;99.90;;;;;;5012374;28;20429;-85
2022/05/06 01:08:16;;;;;;;18.25;16.77;;;12.50;99.90;;;;;;5012412;28;20555;-84
2022/05/06 01:10:43;;;;;;;17.20;16.00;;;12.50;99.90;;;;;;5012569;28;20377;-84
2022/05/06 01:13:09;;;;;;;17.30;16.00;;;12.60;99.90;;;;;;5012972;28;20385;-84
2022/05/06 01:15:36;;;;;;;16.65;15.45;;;12.60;99.90;;;;;;5012366;28;20424;-85
2022/05/06 01:18:02;;;;;;;17.30;16.10;;;12.70;99.90;;;;;;5012637;28;20385;-85
2022/05/06 01:20:28;;;;;;;17.37;16.10;;;12.80;99.90;;;;;;5012146;28;20578;-85
2022/05/06 01:22:56;;;;;;;15.82;14.70;;;12.70;99.90;;;;;;5012850;28;20381;-85
2022/05/06 01:25:22;;;;;;;16.38;15.25;;;12.80;99.90;;;;;;5031311;28;20397;-84
2022/05/06 01:28:03;;;;;;;15.60;14.50;;;12.90;99.90;;;;;;5016194;28;20389;-84
2022/05/06 01:30:39;;;;;;;17.15;15.95;;;12.90;99.90;;;;;;5016148;28;20766;-84
2022/05/06 01:33:09;;;;;;;16.25;15.05;;;12.80;99.90;;;;;;5015899;28;20415;-85
2022/05/06 01:35:57;;;;;;;16.25;15.13;;;12.80;99.90;;;;;;5014301;28;20388;-85
2022/05/06 01:38:36;;;;;;;16.00;14.90;;;12.70;99.90;;;;;;5016001;28;20866;-86
2022/05/06 01:41:09;;;;;;;16.42;15.13;;;12.60;99.90;;;;;;5015918;28;20411;-85
2022/05/06 01:43:42;;;;;;;17.53;16.33;;;12.50;99.90;;;;;;5016238;28;20380;-84
2022/05/06 01:46:13;;;;;;;17.05;15.75;;;12.50;99.90;;;;;;5015967;28;20746;-85
2022/05/06 01:48:41;;;;;;;16.53;15.37;;;12.60;99.90;;;;;;5015707;28;20410;-85
2022/05/06 01:51:14;;;;;;;16.50;15.30;;;12.50;99.90;;;;;;5014461;28;20381;-85
2022/05/06 01:53:41;;;;;;;20.17;18.48;;;12.50;99.90;;;;;;5002958;28;20381;-84
2022/05/06 01:56:10;;;;;;;22.45;20.45;;;12.40;99.90;;;;;;5015514;28;20439;-84
2022/05/06 01:58:36;;;;;;;22.77;20.55;;;12.00;99.90;;;;;;5012412;28;20475;-85
2022/05/06 02:01:02;;;;;;;20.38;18.60;;;11.70;99.90;;;;;;5015598;28;20388;-84
2022/05/06 02:06:11;;;;;;;19.38;17.80;;;12.30;99.90;;;;;;5015918;28;20388;-85
2022/05/06 02:08:37;;;;;;;20.73;19.03;;;12.10;99.90;;;;;;5013993;28;20400;-85
2022/05/06 02:11:05;;;;;;;18.27;16.87;;;12.10;99.90;;;;;;5010844;28;20474;-84
2022/05/06 02:13:32;;;;;;;18.05;16.63;;;12.30;99.90;;;;;;5014264;28;20455;-85
2022/05/06 02:15:58;;;;;;;17.00;15.70;;;12.30;99.90;;;;;;5012430;28;20468;-85
2022/05/06 02:18:24;;;;;;;18.00;16.55;;;12.40;99.90;;;;;;5011126;28;20479;-85
2022/05/06 02:20:49;;;;;;;18.42;16.92;;;12.30;99.90;;;;;;5015022;28;20997;-85
2022/05/06 02:23:15;;;;;;;16.77;15.57;;;12.30;99.90;;;;;;5014413;28;20447;-85
2022/05/06 02:25:42;;;;;;;16.40;15.13;;;12.70;99.90;;;;;;5014911;28;20396;-85
2022/05/06 02:28:08;;;;;;;16.02;14.73;;;12.60;99.90;;;;;;5015165;28;20392;-85
2022/05/06 02:33:23;;;;;;;16.67;15.48;;;12.60;99.90;;;;;;5015070;28;20442;-85
2022/05/06 02:35:49;;;;;;;14.77;13.77;;;12.40;99.90;;;;;;5014163;28;20389;-85
2022/05/06 02:38:14;;;;;;;15.73;14.63;;;12.40;99.90;;;;;;5014840;28;20388;-85
2022/05/06 02:40:40;;;;;;;16.23;14.80;;;12.40;99.90;;;;;;5014698;28;20827;-85
2022/05/06 02:43:07;;;;;;;15.82;14.73;;;12.50;99.90;;;;;;5014977;28;20413;-84
2022/05/06 02:45:33;;;;;;;16.83;15.63;;;12.40;99.90;;;;;;5014644;28;20472;-85
2022/05/06 02:47:59;;;;;;;16.37;15.17;;;12.70;99.90;;;;;;5014669;28;20443;-85
2022/05/06 02:50:26;;;;;;;17.35;16.05;;;12.30;99.90;;;;;;5014660;28;20388;-84
2022/05/06 02:52:52;;;;;;;17.60;16.20;;;12.60;99.90;;;;;;5014666;28;20937;-85
2022/05/06 02:55:18;;;;;;;17.80;16.40;;;12.50;99.90;;;;;;5014269;28;20409;-84
2022/05/06 02:57:44;;;;;;;16.23;14.93;;;12.60;99.90;;;;;;5014530;28;20900;-84
2022/05/06 03:00:11;;;;;;;19.10;17.50;;;12.60;99.90;;;;;;5013195;28;20408;-84
2022/05/06 03:02:37;;;;;;;18.20;16.75;;;12.60;99.90;;;;;;5014474;28;20725;-84
2022/05/06 03:05:03;;;;;;;17.40;16.15;;;12.60;99.90;;;;;;5014174;28;20757;-85
2022/05/06 03:07:29;;;;;;;17.13;15.90;;;12.60;99.90;;;;;;5014497;28;20444;-84
2022/05/06 03:09:55;;;;;;;20.33;18.63;;;12.50;99.90;;;;;;5014242;28;20933;-85
2022/05/06 03:12:26;;;;;;;19.30;17.80;;;12.60;99.90;;;;;;5014278;28;20918;-84
2022/05/06 03:14:53;;;;;;;19.33;17.83;;;12.60;99.90;;;;;;5014076;28;20393;-84
2022/05/06 03:17:19;;;;;;;19.50;17.97;;;12.50;99.90;;;;;;5014170;28;20496;-84
2022/05/06 03:19:44;;;;;;;21.38;19.67;;;12.70;99.90;;;;;;5014346;28;20886;-84
2022/05/06 03:22:10;;;;;;;20.98;19.10;;;12.40;99.90;;;;;;5013933;28;20389;-84
2022/05/06 03:24:35;;;;;;;19.85;18.35;;;12.50;99.90;;;;;;5014062;28;20392;-85
2022/05/06 03:27:02;;;;;;;19.75;18.20;;;12.60;99.90;;;;;;5013805;28;20862;-84
2022/05/06 03:29:27;;;;;;;20.33;18.63;;;12.60;99.90;;;;;;5010779;28;20478;-84
2022/05/06 03:31:53;;;;;;;21.27;19.48;;;12.60;99.90;;;;;;5013958;28;20424;-84
2022/05/06 03:34:20;;;;;;;19.92;18.33;;;12.60;99.90;;;;;;5013728;28;20463;-84
2022/05/06 03:36:46;;;;;;;19.90;18.35;;;12.50;99.90;;;;;;5014116;28;20399;-84
2022/05/06 03:39:12;;;;;;;20.05;18.42;;;12.50;99.90;;;;;;5013731;28;20416;-84
2022/05/06 03:41:38;;;;;;;21.20;19.27;;;12.60;99.90;;;;;;5013771;28;20385;-84
2022/05/06 03:44:06;;;;;;;19.60;18.00;;;12.60;99.90;;;;;;5013512;28;20392;-84
2022/05/06 03:46:33;;;;;;;21.80;19.90;;;12.50;99.90;;;;;;5012995;28;20400;-84
2022/05/06 03:49:01;;;;;;;23.47;21.27;;;12.40;99.90;;;;;;5013718;28;20384;-84
2022/05/06 03:51:28;;;;;;;23.13;20.98;;;12.20;99.90;;;;;;5013684;28;20396;-84
2022/05/06 03:53:55;;;;;;;21.83;20.02;;;12.20;99.90;;;;;;5013393;28;20400;-84
2022/05/06 03:56:22;;;;;;;21.40;19.40;;;12.50;99.90;;;;;;5013479;28;20389;-84
2022/05/06 03:58:48;;;;;;;24.48;22.30;;;12.40;99.90;;;;;;5013300;28;20389;-84
2022/05/06 04:01:16;;;;;;;22.47;20.57;;;12.40;99.90;;;;;;5013390;28;20743;-84
2022/05/06 04:03:41;;;;;;;23.10;21.10;;;12.50;99.90;;;;;;5013292;28;20425;-84
2022/05/06 04:06:07;;;;;;;22.47;20.57;;;12.50;99.90;;;;;;5013371;28;20388;-84
2022/05/06 04:08:33;;;;;;;22.52;20.63;;;12.40;99.90;;;;;;5010184;28;20386;-84
2022/05/06 04:11:00;;;;;;;24.35;22.15;;;12.40;99.90;;;;;;5013504;28;20830;-85
2022/05/06 04:13:26;;;;;;;23.30;21.20;;;12.20;99.90;;;;;;5013270;28;20458;-85
2022/05/06 04:15:51;;;;;;;24.77;22.40;;;12.20;99.90;;;;;;5010131;28;20747;-84
2022/05/06 04:18:18;;;;;;;24.17;21.97;;;12.20;99.90;;;;;;5013199;28;20396;-84
2022/05/06 04:23:32;;;;;;;23.87;21.67;;;12.30;99.90;;;;;;5009856;28;20758;-84
2022/05/06 04:26:06;;;;;;;25.88;23.48;;;12.50;99.90;;;;;;5012114;28;20385;-85
2022/05/06 04:28:32;;;;;;;24.77;22.17;;;12.50;99.90;;;;;;5012007;28;20400;-84
2022/05/06 04:30:58;;;;;;;25.40;22.92;;;12.50;99.90;;;;;;5012946;28;20399;-84
2022/05/06 04:33:25;;;;;;;25.03;22.73;;;12.40;99.90;;;;;;5012243;28;20413;-84
2022/05/06 04:35:51;;;;;;;26.27;23.77;;;12.40;99.90;;;;;;5010670;28;20424;-84
2022/05/06 04:38:17;;;;;;;25.77;23.38;;;12.50;99.90;;;;;;5002911;28;20396;-84
2022/05/06 04:40:43;;;;;;;26.05;23.55;;;12.40;99.90;;;;;;5010774;28;20503;-84
2022/05/06 04:43:11;;;;;;;24.83;22.55;;;12.40;99.90;;;;;;4999905;28;20480;-84
2022/05/06 04:45:40;;;;;;;26.58;24.02;;;12.30;99.90;;;;;;4999148;28;20445;-84
2022/05/06 04:48:08;;;;;;;25.30;22.90;;;12.30;99.90;;;;;;5003865;28;20389;-83
2022/05/06 04:50:35;;;;;;;26.17;23.67;;;12.30;99.90;;;;;;5011470;28;20899;-84
2022/05/06 04:53:01;;;;;;;25.50;23.00;;;12.40;99.90;;;;;;5000200;28;20447;-85
2022/05/06 04:55:27;;;;;;;24.98;22.67;;;12.30;99.90;;;;;;4999400;28;20401;-85
2022/05/06 04:57:53;;;;;;;24.73;22.53;;;12.30;99.90;;;;;;5012126;28;20785;-85
2022/05/06 05:00:21;;;;;;;24.80;22.50;;;12.30;99.90;;;;;;5012625;28;20774;-85
2022/05/06 05:02:47;;;;;;;24.30;22.10;;;12.50;99.90;;;;;;5012565;28;20381;-86
2022/05/06 05:05:12;;;;;;;25.05;22.65;;;12.40;99.90;;;;;;5012327;28;20393;-86
2022/05/06 05:07:39;;;;;;;25.42;23.02;;;12.40;99.90;;;;;;5012443;28;20377;-85
2022/05/06 05:10:05;;;;;;;24.30;22.08;;;12.20;99.90;;;;;;5012617;28;20749;-86
2022/05/06 05:12:31;;;;;;;24.50;22.10;;;12.30;99.90;;;;;;5012382;28;20472;-85
2022/05/06 05:14:57;;;;;;;23.50;21.40;;;12.30;99.90;;;;;;5012144;28;20408;-85
2022/05/06 05:17:22;;;;;;;23.67;21.57;;;12.30;99.90;;;;;;5006573;28;20891;-85
2022/05/06 05:19:48;;;;;;;23.60;21.47;;;12.30;99.90;;;;;;5005746;28;20420;-85
2022/05/06 05:22:14;;;;;;;24.70;22.43;;;12.30;99.90;;;;;;5004508;28;20396;-86
2022/05/06 05:24:40;;;;;;;24.52;22.33;;;12.40;99.90;;;;;;5009872;28;20401;-86
2022/05/06 05:27:06;;;;;;;23.77;21.67;;;12.40;99.90;;;;;;4999319;28;20399;-86
2022/05/06 05:29:32;;;;;;;24.48;22.27;;;12.30;99.90;;;;;;5001418;28;20882;-84
2022/05/06 05:31:57;;;;;;;26.10;23.57;;;12.20;99.90;;;;;;4999168;28;20457;-84
2022/05/06 05:34:23;;;;;;;23.15;21.13;;;12.20;99.90;;;;;;4993706;28;20394;-82
2022/05/06 05:36:49;;;;;;;23.50;21.40;;;12.30;99.90;;;;;;5004201;28;20397;-83
2022/05/06 05:39:14;;;;;;;23.90;21.60;;;12.30;99.90;;;;;;5011917;28;20412;-83
2022/05/06 05:41:40;;;;;;;24.47;22.17;;;12.20;99.90;;;;;;5012110;28;20480;-83
2022/05/06 05:49:36;;;;;;;23.92;21.83;;;12.20;99.90;;;;;;4996331;28;20444;-83
2022/05/06 05:52:01;;;;;;;25.05;22.75;;;12.30;99.90;;;;;;5011214;28;20412;-84
2022/05/06 05:54:28;;;;;;;22.77;20.85;;;12.40;99.90;;;;;;5011751;28;20412;-83
2022/05/06 05:56:54;;;;;;;24.20;21.88;;;12.40;99.90;;;;;;5011959;28;20408;-83
2022/05/06 05:59:20;;;;;;;23.00;20.95;;;12.40;99.90;;;;;;5010585;28;20409;-83
2022/05/06 06:01:46;;;;;;;24.83;22.42;;;12.50;99.90;;;;;;5011940;28;20415;-83
2022/05/06 06:04:11;;;;;;;26.17;23.73;;;12.30;99.90;;;;;;5011780;28;20388;-83
2022/05/06 06:06:37;;;;;;;23.52;21.25;;;12.40;99.90;;;;;;5011835;28;20492;-83
2022/05/06 06:09:03;;;;;;;23.73;21.55;;;12.50;99.90;;;;;;5006174;28;20871;-83
2022/05/06 06:11:28;;;;;;;22.15;20.25;;;12.50;99.90;;;;;;5015245;28;20400;-83
2022/05/06 06:13:54;;;;;;;23.42;21.33;;;12.70;99.90;;;;;;5015256;28;20475;-84
2022/05/06 06:16:20;;;;;;;22.25;20.27;;;12.70;99.90;;;;;;5015320;28;20727;-83
2022/05/06 06:18:47;;;;;;;24.48;22.23;;;12.70;99.90;;;;;;5014915;28;20754;-84
2022/05/06 06:21:12;;;;;;;24.92;22.50;;;12.60;99.90;;;;;;5015186;28;20381;-85
2022/05/06 06:23:38;;;;;;;25.52;23.20;;;12.50;99.90;;;;;;5015084;28;20389;-84
2022/05/06 06:26:04;;;;;;;24.03;21.83;;;12.70;99.90;;;;;;5015141;28;20479;-84
2022/05/06 06:28:29;;;;;;;23.65;21.45;;;12.70;99.90;;;;;;5015099;28;20447;-85
2022/05/06 06:30:55;;;;;;;23.45;21.35;;;12.70;99.90;;;;;;5015008;28;20392;-85
2022/05/06 06:33:21;;;;;;;23.35;21.35;;;12.70;99.90;;;;;;5014645;28;20389;-85
2022/05/06 06:35:46;;;;;;;25.83;23.33;;;12.70;99.90;;;;;;5008407;28;20881;-84
2022/05/06 06:38:12;;;;;;;24.95;22.70;;;12.60;99.90;;;;;;5013251;28;20407;-85
2022/05/06 06:40:37;;;;;;;26.97;24.40;;;12.50;99.90;;;;;;5009976;28;20821;-85
2022/05/06 06:43:05;;;;;;;28.13;25.40;;;12.50;99.90;;;;;;5009249;28;20388;-84
2022/05/06 06:45:31;;;;;;;31.58;28.27;;;12.50;99.90;;;;;;5001944;28;20461;-84
2022/05/06 06:47:57;;;;;;;29.63;26.67;;;12.30;99.90;;;;;;4996149;28;20395;-84
2022/05/06 06:50:24;;;;;;;33.50;29.90;;;12.30;99.90;;;;;;5013113;28;20440;-85
2022/05/06 06:52:50;;;;;;;28.38;25.58;;;12.30;99.90;;;;;;5008065;28;20753;-84
2022/05/06 06:55:17;;;;;;;28.63;25.73;;;12.50;99.90;;;;;;4994525;28;20489;-84
2022/05/06 06:57:44;;;;;;;30.27;27.27;;;12.50;99.90;;;;;;5009940;28;20446;-84
2022/05/06 07:00:11;;;;;;;31.90;28.63;;;12.60;99.90;;;;;;4999716;28;20830;-84
2022/05/06 07:02:37;;;;;;;30.65;27.45;;;12.50;99.90;;;;;;5005592;28;20445;-84
2022/05/06 07:05:03;;;;;;;31.65;28.35;;;12.40;99.90;;;;;;4997225;28;20394;-84
2022/05/06 07:12:57;;;;;;;30.20;27.20;;;12.60;99.90;;;;;;4994245;28;20891;-84
2022/05/06 07:15:23;;;;;;;31.10;27.90;;;12.70;99.90;;;;;;4993813;28;20386;-84
2022/05/06 07:17:50;;;;;;;30.38;26.98;;;12.90;99.90;;;;;;4995998;28;20394;-84
2022/05/06 07:20:15;;;;;;;30.52;27.38;;;13.00;99.90;;;;;;5005255;28;20416;-84
2022/05/06 07:22:41;;;;;;;32.53;29.20;;;13.20;99.90;;;;;;5005731;28;20873;-84
2022/05/06 07:25:08;;;;;;;34.08;30.17;;;13.00;99.90;;;;;;5012934;28;20385;-84
2022/05/06 07:27:35;;;;;;;32.92;29.58;;;12.90;99.90;;;;;;5012446;28;20374;-84
2022/05/06 07:30:02;;;;;;;31.90;28.45;;;12.90;99.90;;;;;;5012657;28;20392;-84
2022/05/06 07:32:28;;;;;;;33.63;30.00;;;13.10;99.90;;;;;;5012451;28;20388;-84
2022/05/06 07:34:53;;;;;;;35.63;31.93;;;13.00;99.90;;;;;;5012246;28;20389;-84
2022/05/06 07:37:19;;;;;;;33.30;29.80;;;12.90;99.90;;;;;;5011850;28;20400;-84
2022/05/06 07:39:44;;;;;;;31.50;28.48;;;12.90;99.90;;;;;;5013637;28;20822;-83
2022/05/06 07:42:12;;;;;;;36.00;32.13;;;13.00;99.90;;;;;;5013033;28;20389;-84
2022/05/06 07:44:38;;;;;;;32.90;29.30;;;13.00;99.90;;;;;;5011227;28;20468;-84
2022/05/06 07:47:04;;;;;;;34.13;30.50;;;13.10;99.90;;;;;;5011719;28;20519;-84
2022/05/06 07:49:29;;;;;;;33.33;29.90;;;13.00;99.90;;;;;;5010451;28;20388;-84
2022/05/06 07:51:55;;;;;;;35.95;32.15;;;13.10;99.90;;;;;;5013649;28;20855;-84
2022/05/06 07:54:21;;;;;;;33.20;29.77;;;13.00;99.90;;;;;;5013197;28;20405;-85
2022/05/06 07:56:46;;;;;;;34.17;30.63;;;12.90;99.90;;;;;;5011902;28;20400;-84
2022/05/06 07:59:12;;;;;;;34.15;30.52;;;13.10;99.90;;;;;;5013165;28;20412;-84
2022/05/06 08:04:36;;;;;;;36.75;32.85;;;13.10;99.90;;;;;;5013339;28;20897;-85
2022/05/06 08:07:03;;;;;;;35.78;32.00;;;13.10;99.90;;;;;;5012033;28;20389;-85
2022/05/06 08:09:29;;;;;;;34.38;30.88;;;13.30;99.90;;;;;;5007915;28;20400;-85
2022/05/06 08:11:54;;;;;;;38.57;34.33;;;13.30;99.90;;;;;;5012050;28;21623;-86
2022/05/06 08:14:20;;;;;;;36.30;32.27;;;13.10;99.90;;;;;;5012950;28;20889;-86
2022/05/06 08:16:47;;;;;;;34.53;30.93;;;13.30;99.90;;;;;;5012619;28;20389;-86
2022/05/06 08:19:13;;;;;;;33.70;30.17;;;13.20;99.90;;;;;;5012796;28;20413;-87
2022/05/06 08:21:39;;;;;;;36.88;32.20;;;13.20;99.90;;;;;;5011760;28;20422;-86
2022/05/06 08:24:05;;;;;;;38.03;33.70;;;12.90;99.90;;;;;;5012699;28;20401;-87
2022/05/06 08:26:32;;;;;;;33.42;30.00;;;13.00;99.90;;;;;;5012849;28;20389;-86
2022/05/06 08:28:57;;;;;;;33.17;29.70;;;13.00;99.90;;;;;;5012707;28;20751;-86
2022/05/06 08:31:23;;;;;;;32.93;29.60;;;13.10;99.90;;;;;;5012621;28;20388;-86
2022/05/06 08:33:48;;;;;;;32.63;29.33;;;13.30;99.90;;;;;;5012354;28;20381;-86
2022/05/06 08:36:14;;;;;;;34.90;31.30;;;13.10;99.90;;;;;;5012677;28;20861;-87
2022/05/06 08:38:40;;;;;;;38.90;34.67;;;13.20;99.90;;;;;;5012669;28;20388;-85
2022/05/06 08:41:05;;;;;;;37.20;33.40;;;12.90;99.90;;;;;;5012649;28;20463;-86
2022/05/06 08:43:32;;;;;;;37.40;33.40;;;12.80;99.90;;;;;;5012551;28;20377;-84
2022/05/06 08:51:35;;;;;;;33.67;30.43;;;12.80;99.90;;;;;;5012961;28;20411;-85
2022/05/06 08:54:01;;;;;;;35.93;32.33;;;13.00;99.90;;;;;;5012167;28;20392;-85
2022/05/06 08:56:28;;;;;;;38.35;34.45;;;12.90;99.90;;;;;;5012305;28;20874;-85
2022/05/06 08:58:54;;;;;;;35.92;32.22;;;13.00;99.90;;;;;;5012494;28;20393;-85
2022/05/06 09:01:23;;;;;;;36.33;32.53;;;13.00;99.90;;;;;;5012558;28;20399;-84
2022/05/06 09:03:49;;;;;;;38.08;34.10;;;13.00;99.90;;;;;;5012480;28;20377;-85
2022/05/06 09:06:21;;;;;;;37.35;33.55;;;12.90;99.90;;;;;;5012557;28;20727;-85
2022/05/06 09:08:49;;;;;;;37.28;33.47;;;12.80;99.90;;;;;;5012171;28;20388;-85
2022/05/06 09:11:17;;;;;;;41.07;36.80;;;12.80;99.90;;;;;;5012576;28;20389;-85
2022/05/06 09:13:58;;;;;;;36.30;32.58;;;12.70;99.90;;;;;;5012105;28;20874;-85
2022/05/06 09:16:39;;;;;;;35.88;32.28;;;12.80;99.90;;;;;;5012184;28;20401;-85
2022/05/06 09:19:15;;;;;;;34.70;31.30;;;12.90;99.90;;;;;;5012027;28;20446;-85
2022/05/06 09:21:58;;;;;;;33.15;29.88;;;12.90;99.90;;;;;;5012275;28;20796;-85
2022/05/06 09:24:27;;;;;;;35.00;31.50;;;13.00;99.90;;;;;;5011990;28;20854;-85
2022/05/06 09:27:01;;;;;;;35.05;31.50;;;13.00;99.90;;;;;;5008961;28;20381;-85
2022/05/06 09:29:31;;;;;;;33.80;30.40;;;12.90;99.90;;;;;;4999531;28;20891;-85
2022/05/06 09:32:27;;;;;;;35.03;31.50;;;13.10;99.90;;;;;;5012117;28;20393;-85
2022/05/06 09:34:55;;;;;;;35.57;31.97;;;13.00;99.90;;;;;;5007836;28;20909;-85
2022/05/06 09:37:30;;;;;;;35.95;32.22;;;12.90;99.90;;;;;;5011912;28;20392;-84
2022/05/06 09:40:10;;;;;;;35.75;32.22;;;13.30;99.90;;;;;;5012017;28;20416;-84
2022/05/06 09:42:53;;;;;;;35.35;31.75;;;13.00;99.90;;;;;;5011969;28;20442;-85
2022/05/06 09:45:37;;;;;;;36.83;33.42;;;12.90;99.90;;;;;;5014513;28;20491;-85
2022/05/06 09:48:04;;;;;;;35.87;32.17;;;12.80;99.90;;;;;;5015561;28;20397;-85
2022/05/06 09:50:36;;;;;;;33.30;30.20;;;13.00;99.90;;;;;;5015320;28;20420;-85
2022/05/06 09:53:04;;;;;;;36.77;33.17;;;13.00;99.90;;;;;;5015585;28;20426;-85
2022/05/06 09:55:30;;;;;;;36.33;32.75;;;13.00;99.90;;;;;;5015365;28;20430;-84
2022/05/06 09:57:59;;;;;;;35.97;32.43;;;13.00;99.90;;;;;;5015508;28;20934;-85
2022/05/06 10:00:28;;;;;;;34.00;30.67;;;13.00;99.90;;;;;;5012262;28;20416;-84
2022/05/06 10:02:55;;;;;;;33.38;30.13;;;12.90;99.90;;;;;;5030622;28;20408;-85
2022/05/06 10:05:22;;;;;;;38.97;35.00;;;12.90;99.90;;;;;;5015136;28;20557;-85
2022/05/06 10:07:49;;;;;;;35.80;32.23;;;12.90;99.90;;;;;;5015363;28;20959;-85
2022/05/06 10:10:22;;;;;;;32.90;29.58;;;12.80;99.90;;;;;;5012744;28;20392;-81
2022/05/06 10:12:54;;;;;;;34.13;30.83;;;13.30;99.90;;;;;;5013771;28;20485;-83
2022/05/06 10:15:22;;;;;;;34.80;31.27;;;12.80;99.90;;;;;;5013475;28;20478;-83
2022/05/06 10:18:02;;;;;;;36.17;32.42;;;12.70;99.90;;;;;;5014648;28;20396;-84
2022/05/06 10:20:51;;;;;;;31.77;28.73;;;12.70;99.90;;;;;;5007483;28;20567;-84
2022/05/06 10:23:18;;;;;;;35.00;31.50;;;12.90;99.90;;;;;;5004881;28;20558;-83
2022/05/06 10:25:44;;;;;;;32.83;29.63;;;12.90;99.90;;;;;;5014308;28;20393;-83
2022/05/06 10:34:07;;;;;;;37.70;33.85;;;12.80;99.90;;;;;;5005795;28;20423;-84
2022/05/06 10:36:43;;;;;;;36.78;32.88;;;12.80;99.90;;;;;;5014818;28;20395;-83
2022/05/06 10:39:21;;;;;;;34.80;31.35;;;12.30;99.90;;;;;;5014537;28;20385;-84
2022/05/06 10:42:03;;;;;;;37.90;34.22;;;12.90;99.90;;;;;;5014671;28;20395;-84
2022/05/06 10:44:44;;;;;;;38.50;34.58;;;12.90;99.90;;;;;;5013081;28;20385;-83
2022/05/06 10:47:13;;;;;;;32.45;29.30;;;12.90;99.90;;;;;;5014479;28;20391;-83
2022/05/06 10:49:38;;;;;;;31.42;28.42;;;13.10;99.90;;;;;;5014423;28;20487;-83
2022/05/06 10:52:26;;;;;;;36.92;33.30;;;13.20;99.90;;;;;;5014457;28;20388;-83
2022/05/06 10:55:00;;;;;;;35.13;31.73;;;13.30;99.90;;;;;;5013861;28;20396;-83
2022/05/06 10:57:28;;;;;;;32.72;29.85;;;13.30;99.90;;;;;;5013587;28;20858;-83
2022/05/06 11:00:02;;;;;;;34.63;31.23;;;13.40;99.90;;;;;;5013004;28;20417;-83
2022/05/06 11:02:33;;;;;;;32.72;29.40;;;13.30;99.90;;;;;;5010883;28;20385;-82
2022/05/06 11:05:09;;;;;;;31.37;28.43;;;13.40;99.90;;;;;;5012854;28;20492;-82
2022/05/06 11:07:37;;;;;;;33.03;29.57;;;13.40;99.90;;;;;;5011624;28;20491;-83
2022/05/06 11:10:13;;;;;;;32.38;29.42;;;13.30;99.90;;;;;;5012338;28;20392;-83
2022/05/06 11:12:41;;;;;;;31.52;28.52;;;13.30;99.90;;;;;;5014576;28;20389;-83
2022/05/06 11:15:08;;;;;;;35.10;31.60;;;13.40;99.90;;;;;;5013918;28;20396;-83
2022/05/06 11:17:35;;;;;;;32.15;29.15;;;13.40;99.90;;;;;;5013985;28;20448;-83
2022/05/06 11:20:03;;;;;;;32.05;28.80;;;13.40;99.90;;;;;;5013854;28;20440;-83
2022/05/06 11:22:33;;;;;;;30.17;27.37;;;13.50;99.90;;;;;;5014133;28;20760;-83
2022/05/06 11:24:59;;;;;;;29.35;26.65;;;13.80;99.90;;;;;;5013810;28;20392;-83
2022/05/06 11:27:24;;;;;;;28.55;25.92;;;13.50;99.90;;;;;;5012522;28;20396;-83
2022/05/06 11:29:55;;;;;;;28.47;25.90;;;13.70;99.90;;;;;;5010863;28;20389;-83
2022/05/06 11:32:25;;;;;;;28.83;26.00;;;13.70;99.90;;;;;;5012561;28;20391;-83
2022/05/06 11:35:09;;;;;;;28.83;26.23;;;13.50;99.90;;;;;;5012735;28;20454;-83
2022/05/06 11:37:38;;;;;;;28.13;25.63;;;13.50;99.90;;;;;;5012403;28;20391;-83
2022/05/06 11:40:32;;;;;;;28.60;25.92;;;13.70;99.90;;;;;;5012467;28;20416;-83
2022/05/06 11:43:07;;;;;;;27.48;25.02;;;13.60;99.90;;;;;;5012014;28;20435;-83
2022/05/06 11:48:22;;;;;;;29.50;26.73;;;13.70;99.90;;;;;;5012086;28;20731;-83
2022/05/06 11:50:55;;;;;;;28.10;25.55;;;13.70;99.90;;;;;;5012580;28;20481;-83
2022/05/06 11:53:25;;;;;;;29.88;27.08;;;13.70;99.90;;;;;;5019009;28;20488;-83
2022/05/06 11:55:52;;;;;;;27.67;25.00;;;13.70;99.90;;;;;;5011316;28;20412;-83
2022/05/06 11:58:18;;;;;;;27.88;25.30;;;13.60;99.90;;;;;;5012068;28;20459;-83
2022/05/06 12:00:44;;;;;;;26.15;23.73;;;13.80;99.90;;;;;;5012549;28;20409;-83
2022/05/06 12:03:11;;;;;;;26.77;24.35;;;13.90;99.90;;;;;;5013183;28;20814;-83
2022/05/06 12:05:38;;;;;;;26.67;24.37;;;14.00;99.90;;;;;;5011095;28;20453;-83
2022/05/06 12:08:04;;;;;;;25.40;23.10;;;14.10;99.90;;;;;;5008445;28;20388;-83
2022/05/06 12:10:34;;;;;;;27.98;25.35;;;14.20;99.90;;;;;;5009129;28;20385;-83
2022/05/06 12:13:02;;;;;;;25.27;22.98;;;14.10;99.90;;;;;;5010796;28;20431;-83
2022/05/06 12:15:40;;;;;;;28.10;25.33;;;14.20;99.90;;;;;;5012436;28;20389;-83
2022/05/06 12:18:06;;;;;;;28.60;25.90;;;14.20;99.90;;;;;;5026185;28;20448;-83
2022/05/06 12:20:40;;;;;;;25.98;23.77;;;14.30;99.90;;;;;;5011174;28;20464;-82
2022/05/06 12:23:08;;;;;;;27.98;25.48;;;14.30;99.90;;;;;;5009122;28;20821;-82
2022/05/06 12:25:35;;;;;;;24.35;22.13;;;14.40;99.90;;;;;;5007724;28;20744;-82
2022/05/06 12:28:10;;;;;;;21.90;20.00;;;14.40;99.90;;;;;;5011810;28;20389;-82
2022/05/06 12:30:37;;;;;;;23.42;21.27;;;14.60;99.90;;;;;;5011685;28;20389;-82
2022/05/06 12:33:06;;;;;;;22.67;20.77;;;14.60;99.90;;;;;;5011676;28;20469;-82
2022/05/06 12:35:59;;;;;;;24.02;21.98;;;14.60;99.90;;;;;;5011217;28;20396;-82
2022/05/06 12:38:44;;;;;;;24.52;22.20;;;14.70;99.90;;;;;;5011638;28;20393;-82
2022/05/06 12:41:25;;;;;;;23.15;21.10;;;14.60;99.90;;;;;;5011325;28;21083;-82
2022/05/06 12:43:53;;;;;;;24.58;22.38;;;14.80;99.90;;;;;;5011324;28;20389;-82
2022/05/06 12:46:26;;;;;;;22.52;20.52;;;14.90;99.90;;;;;;5011493;28;20472;-82
2022/05/06 12:51:39;;;;;;;21.73;19.83;;;15.00;99.90;;;;;;5011690;28;20376;-82
2022/05/06 12:54:05;;;;;;;22.70;20.75;;;15.10;99.90;;;;;;5011226;28;20397;-82
2022/05/06 12:56:30;;;;;;;20.92;19.13;;;15.10;99.90;;;;;;5011489;28;20397;-82
2022/05/06 12:58:56;;;;;;;19.97;18.27;;;15.10;99.90;;;;;;5011654;28;20385;-82
2022/05/06 13:01:22;;;;;;;20.57;18.87;;;15.10;99.90;;;;;;5011218;28;20404;-82
2022/05/06 13:03:48;;;;;;;20.58;18.83;;;15.00;99.90;;;;;;5011189;28;20797;-82
2022/05/06 13:06:14;;;;;;;22.60;20.25;;;15.10;99.90;;;;;;5011123;28;20476;-82
2022/05/06 13:08:40;;;;;;;21.93;20.07;;;15.10;99.90;;;;;;5011238;28;20467;-83
2022/05/06 13:11:05;;;;;;;21.30;19.50;;;15.10;99.90;;;;;;5011239;28;20381;-82
2022/05/06 13:13:31;;;;;;;21.23;19.52;;;15.10;99.90;;;;;;5010857;28;20787;-82